createdAt,value
2023-11-15T00:00:33.604Z,53.94
2023-11-15T00:01:34.584Z,54.87
2023-11-15T00:02:35.550Z,52.54
2023-11-15T00:03:33.857Z,50.14
2023-11-15T00:04:33.571Z,56.38
2023-11-15T00:05:33.643Z,56.18
2023-11-15T00:06:33.703Z,56.71
2023-11-15T00:07:33.547Z,53.25
2023-11-15T00:08:33.566Z,53.47
2023-11-15T00:09:33.537Z,51.26
2023-11-15T00:10:33.515Z,57.10
2023-11-15T00:11:33.587Z,54.43
2023-11-15T00:12:33.553Z,55.11
2023-11-15T00:13:33.506Z,49.91
2023-11-15T00:14:33.549Z,52.90
2023-11-15T00:15:33.555Z,55.00
2023-11-15T00:16:33.513Z,51.09
2023-11-15T00:17:33.535Z,53.97
2023-11-15T00:18:33.530Z,50.27
2023-11-15T00:19:33.461Z,56.67
2023-11-15T00:20:33.495Z,55.30
2023-11-15T00:21:33.464Z,51.06
2023-11-15T00:22:33.470Z,56.86
2023-11-15T00:23:33.437Z,54.53
2023-11-15T00:24:33.454Z,57.05
2023-11-15T00:25:33.419Z,55.06
2023-11-15T00:26:33.772Z,50.77
2023-11-15T00:27:33.402Z,54.44
2023-11-15T00:28:33.402Z,54.81
2023-11-15T00:29:33.425Z,53.90
2023-11-15T00:30:33.470Z,54.82
2023-11-15T00:31:33.390Z,53.08
2023-11-15T00:32:33.412Z,57.26
2023-11-15T00:33:33.408Z,53.10
2023-11-15T00:34:33.366Z,53.16
2023-11-15T00:35:33.425Z,57.05
2023-11-15T00:36:33.383Z,53.08
2023-11-15T00:37:33.327Z,56.00
2023-11-15T00:38:33.371Z,57.99
2023-11-15T00:39:33.319Z,56.67
2023-11-15T00:40:33.317Z,54.39
2023-11-15T00:41:33.422Z,55.18
2023-11-15T00:42:33.308Z,56.28
2023-11-15T00:43:33.293Z,54.09
2023-11-15T00:44:33.420Z,53.60
2023-11-15T00:45:33.291Z,57.08
2023-11-15T00:46:33.284Z,52.49
2023-11-15T00:47:33.306Z,51.53
2023-11-15T00:48:33.297Z,51.15
2023-11-15T00:49:33.252Z,53.91
2023-11-15T00:50:33.257Z,56.35
2023-11-15T00:51:33.256Z,56.58
2023-11-15T00:52:33.227Z,53.59
2023-11-15T00:53:33.227Z,50.64
2023-11-15T00:54:33.221Z,56.40
2023-11-15T00:55:33.215Z,49.06
2023-11-15T00:56:33.242Z,52.57
2023-11-15T00:57:33.208Z,49.22
2023-11-15T00:58:33.184Z,51.78
2023-11-15T00:59:33.194Z,56.27
2023-11-15T01:00:33.179Z,56.44
2023-11-15T01:01:33.169Z,55.06
2023-11-15T01:02:33.282Z,53.73
2023-11-15T01:03:33.235Z,52.41
2023-11-15T01:04:33.164Z,58.15
2023-11-15T01:05:33.197Z,52.69
2023-11-15T01:06:33.136Z,49.71
2023-11-15T01:07:33.143Z,52.09
2023-11-15T01:08:33.126Z,50.01
2023-11-15T01:09:33.132Z,57.43
2023-11-15T01:10:33.101Z,57.17
2023-11-15T01:11:33.107Z,52.01
2023-11-15T01:12:33.092Z,51.44
2023-11-15T01:13:34.076Z,51.02
2023-11-15T01:14:33.145Z,50.43
2023-11-15T01:15:33.060Z,56.84
2023-11-15T01:16:33.131Z,54.00
2023-11-15T01:17:33.081Z,47.87
2023-11-15T01:18:33.039Z,53.38
2023-11-15T01:19:33.044Z,52.89
2023-11-15T01:20:33.060Z,54.93
2023-11-15T01:21:33.033Z,55.89
2023-11-15T01:22:33.016Z,50.04
2023-11-15T01:23:33.055Z,48.46
2023-11-15T01:24:33.023Z,52.25
2023-11-15T01:25:32.993Z,49.40
2023-11-15T01:26:33.066Z,47.42
2023-11-15T01:27:32.997Z,51.14
2023-11-15T01:28:32.977Z,52.89
2023-11-15T01:29:32.995Z,57.67
2023-11-15T01:30:32.953Z,55.76
2023-11-15T01:31:32.971Z,54.27
2023-11-15T01:32:32.998Z,56.88
2023-11-15T01:33:33.121Z,55.67
2023-11-15T01:34:32.971Z,53.78
2023-11-15T01:35:32.930Z,50.56
2023-11-15T01:36:32.929Z,53.34
2023-11-15T01:37:32.908Z,51.69
2023-11-15T01:38:32.915Z,52.78
2023-11-15T01:39:32.895Z,58.66
2023-11-15T01:40:32.903Z,52.23
2023-11-15T01:41:32.902Z,53.74
2023-11-15T01:42:32.903Z,52.69
2023-11-15T01:43:32.890Z,55.34
2023-11-15T01:44:32.901Z,52.09
2023-11-15T01:45:32.890Z,51.50
2023-11-15T01:46:32.860Z,47.98
2023-11-15T01:47:32.892Z,54.84
2023-11-15T01:48:32.831Z,46.65
2023-11-15T01:49:32.824Z,53.41
2023-11-15T01:50:32.992Z,48.95
2023-11-15T01:51:32.808Z,53.46
2023-11-15T01:52:32.813Z,49.63
2023-11-15T01:53:32.868Z,48.91
2023-11-15T01:54:32.796Z,51.88
2023-11-15T01:55:32.800Z,46.95
2023-11-15T01:56:32.792Z,51.32
2023-11-15T01:57:32.769Z,52.59
2023-11-15T01:58:32.752Z,56.33
2023-11-15T01:59:32.777Z,54.33
2023-11-15T02:00:32.791Z,53.04
2023-11-15T02:01:32.784Z,55.81
2023-11-15T02:02:32.821Z,54.18
2023-11-15T02:03:32.813Z,57.82
2023-11-15T02:04:32.731Z,59.72
2023-11-15T02:05:32.740Z,51.31
2023-11-15T02:06:32.738Z,55.17
2023-11-15T02:07:32.701Z,48.05
2023-11-15T02:08:32.697Z,48.56
2023-11-15T02:09:32.681Z,50.53
2023-11-15T02:10:32.686Z,52.96
2023-11-15T02:11:32.720Z,51.02
2023-11-15T02:12:32.673Z,58.66
2023-11-15T02:13:32.681Z,53.66
2023-11-15T02:14:32.693Z,54.03
2023-11-15T02:15:32.648Z,54.83
2023-11-15T02:16:32.678Z,48.53
2023-11-15T02:17:32.683Z,55.75
2023-11-15T02:18:32.664Z,56.36
2023-11-15T02:19:32.624Z,55.90
2023-11-15T02:20:32.642Z,56.28
2023-11-15T02:21:32.629Z,54.97
2023-11-15T02:22:32.618Z,54.23
2023-11-15T02:23:32.705Z,55.83
2023-11-15T02:24:32.624Z,48.54
2023-11-15T02:25:32.573Z,52.69
2023-11-15T02:26:33.675Z,54.19
2023-11-15T02:27:32.572Z,53.68
2023-11-15T02:28:32.580Z,46.94
2023-11-15T02:29:32.598Z,48.14
2023-11-15T02:30:32.546Z,56.16
2023-11-15T02:31:32.547Z,54.09
2023-11-15T02:32:32.603Z,51.99
2023-11-15T02:33:32.562Z,51.95
2023-11-15T02:34:32.530Z,49.44
2023-11-15T02:35:32.547Z,51.57
2023-11-15T02:36:32.511Z,52.49
2023-11-15T02:37:32.500Z,51.10
2023-11-15T02:38:32.501Z,52.33
2023-11-15T02:39:32.508Z,53.72
2023-11-15T02:40:32.470Z,58.65
2023-11-15T02:41:32.479Z,52.02
2023-11-15T02:42:32.479Z,55.79
2023-11-15T02:43:32.451Z,56.75
2023-11-15T02:44:32.467Z,57.62
2023-11-15T02:45:32.447Z,55.77
2023-11-15T02:46:32.452Z,51.60
2023-11-15T02:47:32.506Z,52.37
2023-11-15T02:48:32.470Z,51.75
2023-11-15T02:49:32.407Z,50.11
2023-11-15T02:50:32.468Z,52.46
2023-11-15T02:51:32.414Z,51.73
2023-11-15T02:52:32.387Z,56.47
2023-11-15T02:53:32.445Z,52.93
2023-11-15T02:54:32.380Z,50.57
2023-11-15T02:55:32.379Z,56.44
2023-11-15T02:56:32.366Z,54.33
2023-11-15T02:57:32.359Z,51.34
2023-11-15T02:58:32.538Z,54.50
2023-11-15T02:59:32.372Z,52.57
2023-11-15T03:00:32.336Z,50.67
2023-11-15T03:01:32.338Z,56.30
2023-11-15T03:02:32.420Z,50.84
2023-11-15T03:03:32.344Z,54.92
2023-11-15T03:04:32.346Z,58.22
2023-11-15T03:05:32.328Z,56.39
2023-11-15T03:06:32.277Z,50.93
2023-11-15T03:07:32.284Z,54.60
2023-11-15T03:08:32.488Z,52.90
2023-11-15T03:09:32.265Z,56.89
2023-11-15T03:10:32.360Z,54.92
2023-11-15T03:11:32.286Z,57.13
2023-11-15T03:12:32.248Z,55.95
2023-11-15T03:13:32.238Z,59.97
2023-11-15T03:14:32.359Z,55.66
2023-11-15T03:15:32.258Z,53.79
2023-11-15T03:16:32.305Z,51.11
2023-11-15T03:17:32.291Z,56.30
2023-11-15T03:18:32.290Z,54.36
2023-11-15T03:19:32.224Z,55.99
2023-11-15T03:20:32.230Z,57.96
2023-11-15T03:21:32.193Z,56.18
2023-11-15T03:22:32.172Z,54.49
2023-11-15T03:23:32.193Z,57.05
2023-11-15T03:24:32.190Z,60.14
2023-11-15T03:25:32.173Z,56.36
2023-11-15T03:26:32.185Z,53.98
2023-11-15T03:27:32.175Z,53.84
2023-11-15T03:28:32.139Z,53.87
2023-11-15T03:29:32.155Z,52.32
2023-11-15T03:30:32.125Z,52.10
2023-11-15T03:31:32.120Z,55.81
2023-11-15T03:32:32.269Z,56.38
2023-11-15T03:33:32.217Z,56.95
2023-11-15T03:34:32.225Z,57.66
2023-11-15T03:35:32.206Z,55.76
2023-11-15T03:36:32.075Z,60.18
2023-11-15T03:37:32.068Z,56.91
2023-11-15T03:38:32.108Z,55.19
2023-11-15T03:39:32.057Z,54.61
2023-11-15T03:40:32.060Z,58.91
2023-11-15T03:41:32.061Z,53.69
2023-11-15T03:42:32.033Z,55.35
2023-11-15T03:43:32.048Z,59.29
2023-11-15T03:44:32.086Z,52.96
2023-11-15T03:45:32.023Z,55.17
2023-11-15T03:46:32.035Z,57.72
2023-11-15T03:47:32.062Z,58.57
2023-11-15T03:48:32.090Z,55.70
2023-11-15T03:49:32.035Z,57.10
2023-11-15T03:50:32.116Z,56.80
2023-11-15T03:51:31.975Z,56.08
2023-11-15T03:52:32.024Z,59.12
2023-11-15T03:53:32.047Z,58.33
2023-11-15T03:54:31.942Z,57.06
2023-11-15T03:55:32.101Z,58.77
2023-11-15T03:56:31.960Z,61.15
2023-11-15T03:57:31.933Z,57.38
2023-11-15T03:58:32.029Z,54.18
2023-11-15T03:59:31.921Z,60.46
2023-11-15T04:00:31.922Z,58.02
2023-11-15T04:01:32.984Z,59.98
2023-11-15T04:02:32.017Z,58.06
2023-11-15T04:03:32.048Z,60.46
2023-11-15T04:04:32.008Z,60.01
2023-11-15T04:05:31.993Z,61.69
2023-11-15T04:06:31.887Z,60.11
2023-11-15T04:07:31.881Z,60.05
2023-11-15T04:08:31.913Z,57.79
2023-11-15T04:09:31.848Z,62.33
2023-11-15T04:10:31.848Z,60.35
2023-11-15T04:11:31.865Z,59.65
2023-11-15T04:12:31.841Z,60.41
2023-11-15T04:13:31.817Z,57.99
2023-11-15T04:14:31.864Z,59.85
2023-11-15T04:15:31.805Z,60.23
2023-11-15T04:16:31.840Z,58.07
2023-11-15T04:17:31.894Z,58.40
2023-11-15T04:18:31.840Z,59.47
2023-11-15T04:19:31.789Z,58.64
2023-11-15T04:20:31.808Z,58.56
2023-11-15T04:21:31.777Z,60.69
2023-11-15T04:22:31.791Z,60.63
2023-11-15T04:23:31.763Z,59.59
2023-11-15T04:24:31.742Z,59.87
2023-11-15T04:25:31.743Z,59.68
2023-11-15T04:26:31.745Z,61.30
2023-11-15T04:27:31.775Z,60.80
2023-11-15T04:28:31.717Z,61.17
2023-11-15T04:29:31.708Z,61.89
2023-11-15T04:30:31.820Z,61.74
2023-11-15T04:31:31.724Z,59.89
2023-11-15T04:32:31.821Z,61.32
2023-11-15T04:33:31.753Z,64.75
2023-11-15T04:34:31.685Z,62.99
2023-11-15T04:35:31.711Z,62.59
2023-11-15T04:36:31.684Z,61.97
2023-11-15T04:37:31.656Z,62.59
2023-11-15T04:38:31.665Z,61.58
2023-11-15T04:39:31.664Z,58.41
2023-11-15T04:40:31.658Z,61.55
2023-11-15T04:41:31.673Z,60.67
2023-11-15T04:42:31.617Z,61.66
2023-11-15T04:43:31.618Z,64.03
2023-11-15T04:44:31.862Z,63.57
2023-11-15T04:45:31.619Z,63.34
2023-11-15T04:46:31.586Z,62.96
2023-11-15T04:47:31.671Z,61.46
2023-11-15T04:48:31.642Z,62.99
2023-11-15T04:49:31.579Z,62.64
2023-11-15T04:50:31.564Z,62.69
2023-11-15T04:51:31.555Z,62.99
2023-11-15T04:52:32.554Z,63.38
2023-11-15T04:53:31.549Z,61.69
2023-11-15T04:54:31.567Z,63.62
2023-11-15T04:55:31.536Z,62.68
2023-11-15T04:56:31.583Z,62.15
2023-11-15T04:57:31.527Z,62.56
2023-11-15T04:58:31.529Z,61.85
2023-11-15T04:59:31.555Z,61.45
2023-11-15T05:00:31.514Z,61.75
2023-11-15T05:01:31.511Z,60.56
2023-11-15T05:02:31.649Z,61.74
2023-11-15T05:03:31.670Z,62.41
2023-11-15T05:04:31.641Z,62.37
2023-11-15T05:05:31.550Z,62.55
2023-11-15T05:06:31.465Z,63.17
2023-11-15T05:07:31.465Z,62.19
2023-11-15T05:08:31.480Z,60.48
2023-11-15T05:09:31.438Z,61.30
2023-11-15T05:10:31.437Z,60.41
2023-11-15T05:11:31.488Z,61.86
2023-11-15T05:12:31.422Z,63.04
2023-11-15T05:13:31.415Z,62.00
2023-11-15T05:14:31.429Z,62.88
2023-11-15T05:15:31.409Z,64.10
2023-11-15T05:16:31.526Z,63.01
2023-11-15T05:17:31.483Z,63.01
2023-11-15T05:18:31.442Z,61.48
2023-11-15T05:19:31.369Z,62.44
2023-11-15T05:20:31.447Z,63.34
2023-11-15T05:21:31.351Z,62.78
2023-11-15T05:22:32.378Z,64.31
2023-11-15T05:23:31.374Z,64.17
2023-11-15T05:24:31.328Z,63.28
2023-11-15T05:25:31.366Z,61.60
2023-11-15T05:26:31.368Z,62.51
2023-11-15T05:27:31.325Z,63.57
2023-11-15T05:28:31.321Z,62.95
2023-11-15T05:29:31.387Z,65.10
2023-11-15T05:30:31.316Z,65.94
2023-11-15T05:31:31.354Z,63.71
2023-11-15T05:32:31.360Z,64.88
2023-11-15T05:33:31.318Z,63.45
2023-11-15T05:34:31.297Z,63.72
2023-11-15T05:35:31.346Z,63.26
2023-11-15T05:36:31.256Z,63.00
2023-11-15T05:37:31.252Z,63.90
2023-11-15T05:38:31.318Z,63.55
2023-11-15T05:39:31.247Z,62.85
2023-11-15T05:40:31.219Z,64.28
2023-11-15T05:41:31.236Z,63.38
2023-11-15T05:42:31.218Z,65.46
2023-11-15T05:43:31.205Z,65.28
2023-11-15T05:44:31.265Z,64.57
2023-11-15T05:45:31.181Z,63.23
2023-11-15T05:46:31.222Z,62.65
2023-11-15T05:47:31.253Z,64.09
2023-11-15T05:48:31.230Z,64.66
2023-11-15T05:49:31.165Z,63.54
2023-11-15T05:50:31.200Z,63.99
2023-11-15T05:51:31.137Z,62.96
2023-11-15T05:52:31.141Z,64.44
2023-11-15T05:53:31.155Z,63.60
2023-11-15T05:54:31.144Z,64.41
2023-11-15T05:55:31.156Z,63.55
2023-11-15T05:56:31.123Z,63.56
2023-11-15T05:57:31.103Z,64.16
2023-11-15T05:58:31.098Z,63.91
2023-11-15T05:59:31.115Z,64.13
2023-11-15T06:00:31.184Z,63.04
2023-11-15T06:01:31.117Z,62.95
2023-11-15T06:02:31.128Z,63.76
2023-11-15T06:03:31.122Z,65.49
2023-11-15T06:04:31.115Z,62.39
2023-11-15T06:05:31.067Z,62.95
2023-11-15T06:06:31.060Z,63.88
2023-11-15T06:07:31.037Z,62.67
2023-11-15T06:08:31.088Z,62.75
2023-11-15T06:09:31.022Z,63.84
2023-11-15T06:10:31.009Z,62.03
2023-11-15T06:11:31.064Z,62.07
2023-11-15T06:12:30.997Z,63.38
2023-11-15T06:13:30.993Z,62.92
2023-11-15T06:14:31.005Z,62.37
2023-11-15T06:15:30.969Z,64.57
2023-11-15T06:16:31.014Z,62.54
2023-11-15T06:17:31.070Z,63.07
2023-11-15T06:18:30.971Z,63.09
2023-11-15T06:19:30.934Z,63.37
2023-11-15T06:20:31.107Z,63.03
2023-11-15T06:21:30.937Z,62.92
2023-11-15T06:22:30.935Z,64.44
2023-11-15T06:23:30.936Z,64.63
2023-11-15T06:24:30.906Z,64.03
2023-11-15T06:25:30.894Z,64.23
2023-11-15T06:26:30.906Z,63.50
2023-11-15T06:27:30.904Z,64.07
2023-11-15T06:28:30.890Z,62.62
2023-11-15T06:29:30.945Z,63.16
2023-11-15T06:30:30.907Z,64.22
2023-11-15T06:31:30.861Z,63.26
2023-11-15T06:32:30.921Z,63.89
2023-11-15T06:33:31.012Z,64.59
2023-11-15T06:34:30.926Z,65.11
2023-11-15T06:35:30.858Z,63.78
2023-11-15T06:36:30.816Z,64.14
2023-11-15T06:37:30.814Z,69.15
2023-11-15T06:38:30.914Z,64.68
2023-11-15T06:39:30.816Z,65.59
2023-11-15T06:40:30.783Z,66.91
2023-11-15T06:41:30.791Z,67.97
2023-11-15T06:42:30.814Z,67.41
2023-11-15T06:43:30.823Z,67.54
2023-11-15T06:44:30.784Z,67.59
2023-11-15T06:45:30.757Z,68.14
2023-11-15T06:46:30.765Z,67.11
2023-11-15T06:47:30.836Z,65.38
2023-11-15T06:48:30.834Z,66.27
2023-11-15T06:49:30.719Z,65.99
2023-11-15T06:50:30.794Z,66.79
2023-11-15T06:51:30.714Z,70.00
2023-11-15T06:52:30.751Z,77.27
2023-11-15T06:53:30.724Z,73.04
2023-11-15T06:54:30.712Z,66.78
2023-11-15T06:55:30.688Z,69.56
2023-11-15T06:56:30.682Z,74.52
2023-11-15T06:57:30.778Z,67.58
2023-11-15T06:58:30.668Z,64.89
2023-11-15T06:59:30.679Z,65.30
2023-11-15T07:00:30.648Z,64.52
2023-11-15T07:01:30.677Z,64.29
2023-11-15T07:02:30.696Z,64.51
2023-11-15T07:03:30.733Z,65.12
2023-11-15T07:04:30.649Z,65.34
2023-11-15T07:05:30.621Z,65.12
2023-11-15T07:06:30.613Z,64.76
2023-11-15T07:07:30.608Z,63.35
2023-11-15T07:08:30.662Z,64.31
2023-11-15T07:09:30.598Z,61.75
2023-11-15T07:10:30.600Z,63.24
2023-11-15T07:11:30.591Z,62.95
2023-11-15T07:12:30.571Z,63.84
2023-11-15T07:13:30.556Z,62.44
2023-11-15T07:14:30.601Z,62.18
2023-11-15T07:15:30.555Z,62.56
2023-11-15T07:16:30.559Z,65.06
2023-11-15T07:17:31.583Z,64.31
2023-11-15T07:18:30.720Z,64.53
2023-11-15T07:19:30.531Z,64.25
2023-11-15T07:20:30.531Z,63.25
2023-11-15T07:21:30.496Z,65.77
2023-11-15T07:22:30.498Z,63.41
2023-11-15T07:23:30.530Z,63.80
2023-11-15T07:24:30.510Z,63.42
2023-11-15T07:25:30.477Z,62.41
2023-11-15T07:26:30.494Z,63.42
2023-11-15T07:27:30.458Z,62.80
2023-11-15T07:28:30.432Z,63.96
2023-11-15T07:29:31.558Z,63.31
2023-11-15T07:30:30.453Z,64.91
2023-11-15T07:31:30.455Z,65.09
2023-11-15T07:32:30.442Z,64.15
2023-11-15T07:33:30.471Z,63.73
2023-11-15T07:34:30.418Z,63.21
2023-11-15T07:35:30.438Z,63.38
2023-11-15T07:36:30.388Z,63.21
2023-11-15T07:37:30.388Z,64.52
2023-11-15T07:38:30.431Z,62.70
2023-11-15T07:39:30.440Z,63.30
2023-11-15T07:40:30.397Z,64.40
2023-11-15T07:41:30.402Z,63.36
2023-11-15T07:42:30.349Z,63.96
2023-11-15T07:43:30.356Z,64.38
2023-11-15T07:44:30.360Z,63.78
2023-11-15T07:45:30.357Z,63.81
2023-11-15T07:46:30.384Z,63.46
2023-11-15T07:47:30.442Z,64.06
2023-11-15T07:48:30.438Z,63.03
2023-11-15T07:49:30.378Z,64.29
2023-11-15T07:50:30.312Z,65.15
2023-11-15T07:51:30.307Z,64.54
2023-11-15T07:52:30.273Z,63.40
2023-11-15T07:53:30.298Z,64.23
2023-11-15T07:54:30.271Z,63.53
2023-11-15T07:55:30.264Z,64.91
2023-11-15T07:56:30.276Z,64.44
2023-11-15T07:57:30.236Z,63.24
2023-11-15T07:58:30.645Z,61.53
2023-11-15T07:59:30.275Z,63.62
2023-11-15T08:00:30.217Z,62.47
2023-11-15T08:01:30.231Z,63.24
2023-11-15T08:02:30.548Z,63.18
2023-11-15T08:03:30.404Z,63.01
2023-11-15T08:04:30.310Z,61.92
2023-11-15T08:05:30.288Z,61.61
2023-11-15T08:06:30.202Z,61.62
2023-11-15T08:07:30.202Z,61.53
2023-11-15T08:08:30.188Z,62.98
2023-11-15T08:09:30.165Z,62.71
2023-11-15T08:10:30.157Z,61.42
2023-11-15T08:11:30.256Z,60.99
2023-11-15T08:12:30.141Z,60.99
2023-11-15T08:13:30.249Z,62.13
2023-11-15T08:14:30.261Z,62.98
2023-11-15T08:15:30.104Z,62.44
2023-11-15T08:16:30.241Z,61.82
2023-11-15T08:17:30.202Z,62.56
2023-11-15T08:18:30.185Z,61.96
2023-11-15T08:19:30.127Z,60.51
2023-11-15T08:20:30.078Z,60.36
2023-11-15T08:21:30.092Z,60.68
2023-11-15T08:22:30.119Z,63.03
2023-11-15T08:23:30.076Z,61.96
2023-11-15T08:24:30.075Z,60.98
2023-11-15T08:25:30.133Z,61.78
2023-11-15T08:26:30.030Z,62.49
2023-11-15T08:27:30.028Z,61.72
2023-11-15T08:28:30.011Z,61.02
2023-11-15T08:29:31.033Z,61.00
2023-11-15T08:30:30.013Z,62.33
2023-11-15T08:31:30.010Z,63.30
2023-11-15T08:32:29.990Z,62.19
2023-11-15T08:33:30.068Z,65.35
2023-11-15T08:34:29.995Z,61.94
2023-11-15T08:35:29.984Z,62.65
2023-11-15T08:36:30.715Z,62.44
2023-11-15T08:37:29.970Z,61.23
2023-11-15T08:38:29.950Z,62.18
2023-11-15T08:39:29.960Z,60.57
2023-11-15T08:40:29.974Z,61.80
2023-11-15T08:41:30.002Z,62.38
2023-11-15T08:42:29.972Z,61.58
2023-11-15T08:43:29.936Z,60.48
2023-11-15T08:44:29.992Z,61.23
2023-11-15T08:45:29.993Z,62.52
2023-11-15T08:46:29.904Z,62.97
2023-11-15T08:47:30.008Z,61.80
2023-11-15T08:48:29.998Z,63.05
2023-11-15T08:49:29.895Z,62.70
2023-11-15T08:50:29.871Z,62.52
2023-11-15T08:51:29.870Z,62.03
2023-11-15T08:52:29.854Z,61.51
2023-11-15T08:53:29.856Z,63.09
2023-11-15T08:54:29.840Z,63.66
2023-11-15T08:55:29.868Z,60.98
2023-11-15T08:56:29.890Z,60.86
2023-11-15T08:57:30.819Z,62.46
2023-11-15T08:58:29.807Z,61.47
2023-11-15T08:59:29.873Z,61.99
2023-11-15T09:00:29.898Z,61.05
2023-11-15T09:01:29.804Z,60.36
2023-11-15T09:02:29.831Z,61.22
2023-11-15T09:03:29.965Z,62.38
2023-11-15T09:04:29.828Z,61.02
2023-11-15T09:05:29.786Z,59.81
2023-11-15T09:06:29.815Z,60.73
2023-11-15T09:07:30.774Z,60.66
2023-11-15T09:08:29.751Z,61.19
2023-11-15T09:09:29.742Z,61.23
2023-11-15T09:10:29.772Z,60.57
2023-11-15T09:11:29.738Z,60.88
2023-11-15T09:12:29.725Z,62.50
2023-11-15T09:13:29.761Z,62.82
2023-11-15T09:14:29.721Z,61.25
2023-11-15T09:15:29.708Z,61.12
2023-11-15T09:16:29.742Z,60.21
2023-11-15T09:17:29.726Z,59.59
2023-11-15T09:18:29.778Z,58.10
2023-11-15T09:19:29.685Z,59.08
2023-11-15T09:20:29.675Z,58.21
2023-11-15T09:21:29.664Z,60.71
2023-11-15T09:22:29.665Z,60.54
2023-11-15T09:23:30.939Z,60.71
2023-11-15T09:24:29.656Z,59.02
2023-11-15T09:25:29.641Z,62.07
2023-11-15T09:26:29.660Z,62.77
2023-11-15T09:27:29.723Z,61.67
2023-11-15T09:28:29.670Z,61.07
2023-11-15T09:29:29.629Z,61.48
2023-11-15T09:30:29.596Z,61.30
2023-11-15T09:31:29.589Z,60.18
2023-11-15T09:32:29.626Z,60.31
2023-11-15T09:33:31.245Z,59.51
2023-11-15T09:34:30.640Z,60.25
2023-11-15T09:35:29.793Z,61.03
2023-11-15T09:36:29.559Z,62.02
2023-11-15T09:37:29.547Z,63.52
2023-11-15T09:38:29.610Z,61.14
2023-11-15T09:39:29.533Z,60.67
2023-11-15T09:40:29.537Z,60.81
2023-11-15T09:41:29.521Z,59.90
2023-11-15T09:42:29.565Z,62.71
2023-11-15T09:43:29.533Z,63.72
2023-11-15T09:44:29.495Z,64.37
2023-11-15T09:45:29.511Z,59.76
2023-11-15T09:46:29.565Z,63.42
2023-11-15T09:47:29.532Z,60.13
2023-11-15T09:48:29.641Z,63.13
2023-11-15T09:49:29.567Z,61.28
2023-11-15T09:50:29.464Z,61.12
2023-11-15T09:51:29.440Z,60.62
2023-11-15T09:53:32.026Z,61.98
2023-11-15T09:54:34.938Z,61.77
2023-11-15T09:55:30.454Z,58.42
2023-11-15T09:56:30.841Z,61.72
2023-11-15T09:57:29.412Z,60.35
2023-11-15T09:58:29.421Z,60.68
2023-11-15T09:59:29.413Z,62.98
2023-11-15T10:00:29.415Z,60.42
2023-11-15T10:01:29.441Z,61.90
2023-11-15T10:02:29.442Z,61.07
2023-11-15T10:03:29.434Z,60.48
2023-11-15T10:04:29.367Z,61.37
2023-11-15T10:05:29.358Z,60.00
2023-11-15T10:06:29.343Z,60.85
2023-11-15T10:07:29.331Z,60.84
2023-11-15T10:08:29.348Z,60.15
2023-11-15T10:09:29.321Z,61.45
2023-11-15T10:10:29.338Z,61.59
2023-11-15T10:11:29.322Z,60.46
2023-11-15T10:12:29.313Z,62.25
2023-11-15T10:13:30.391Z,63.88
2023-11-15T10:14:29.313Z,63.69
2023-11-15T10:15:29.297Z,62.27
2023-11-15T10:16:29.284Z,61.14
2023-11-15T10:17:29.320Z,61.71
2023-11-15T10:18:29.406Z,60.71
2023-11-15T10:19:29.274Z,59.42
2023-11-15T10:20:29.258Z,61.36
2023-11-15T10:21:29.261Z,60.29
2023-11-15T10:22:29.253Z,61.67
2023-11-15T10:23:29.229Z,62.42
2023-11-15T10:24:29.241Z,62.02
2023-11-15T10:25:29.226Z,62.73
2023-11-15T10:26:29.211Z,60.40
2023-11-15T10:27:29.196Z,61.21
2023-11-15T10:28:29.194Z,60.13
2023-11-15T10:29:29.225Z,61.74
2023-11-15T10:30:29.179Z,61.74
2023-11-15T10:31:29.189Z,61.98
2023-11-15T10:32:29.183Z,60.20
2023-11-15T10:33:29.201Z,60.48
2023-11-15T10:34:34.011Z,61.85
2023-11-15T10:35:31.144Z,62.24
2023-11-15T10:36:29.149Z,60.39
2023-11-15T10:37:29.707Z,61.44
2023-11-15T10:38:29.130Z,62.14
2023-11-15T10:39:29.157Z,63.28
2023-11-15T10:40:29.115Z,59.77
2023-11-15T10:41:29.150Z,60.82
2023-11-15T10:42:29.148Z,61.17
2023-11-15T10:43:29.096Z,58.94
2023-11-15T10:44:29.091Z,59.76
2023-11-15T10:45:29.359Z,60.03
2023-11-15T10:46:29.072Z,60.69
2023-11-15T10:47:29.090Z,61.85
2023-11-15T10:48:29.083Z,60.03
2023-11-15T10:49:29.049Z,58.77
2023-11-15T10:50:29.031Z,59.68
2023-11-15T10:51:29.051Z,60.87
2023-11-15T10:52:29.019Z,60.58
2023-11-15T10:53:29.031Z,61.84
2023-11-15T10:54:29.839Z,62.39
2023-11-15T10:55:30.792Z,59.85
2023-11-15T10:56:29.008Z,59.46
2023-11-15T10:57:29.494Z,59.53
2023-11-15T10:58:29.061Z,59.10
2023-11-15T10:59:28.991Z,61.74
2023-11-15T11:00:28.967Z,61.09
2023-11-15T11:01:29.025Z,61.40
2023-11-15T11:02:29.045Z,61.79
2023-11-15T11:03:29.157Z,61.14
2023-11-15T11:04:29.067Z,60.02
2023-11-15T11:05:28.957Z,60.11
2023-11-15T11:06:28.921Z,60.11
2023-11-15T11:07:28.923Z,61.15
2023-11-15T11:08:28.934Z,60.54
2023-11-15T11:09:28.927Z,60.89
2023-11-15T11:10:30.073Z,61.68
2023-11-15T11:11:28.912Z,62.39
2023-11-15T11:12:28.910Z,61.64
2023-11-15T11:13:28.879Z,60.54
2023-11-15T11:14:29.065Z,62.39
2023-11-15T11:15:28.936Z,61.89
2023-11-15T11:16:34.582Z,61.23
2023-11-15T11:17:30.899Z,60.24
2023-11-15T11:18:28.992Z,59.78
2023-11-15T11:19:28.828Z,60.35
2023-11-15T11:20:28.833Z,61.34
2023-11-15T11:21:28.838Z,61.49
2023-11-15T11:22:28.847Z,60.76
2023-11-15T11:23:29.638Z,60.77
2023-11-15T11:24:28.806Z,60.64
2023-11-15T11:25:29.797Z,60.16
2023-11-15T11:26:28.808Z,60.53
2023-11-15T11:27:28.862Z,60.42
2023-11-15T11:28:28.771Z,59.55
2023-11-15T11:29:28.764Z,60.26
2023-11-15T11:30:28.791Z,60.76
2023-11-15T11:31:28.775Z,61.90
2023-11-15T11:32:28.912Z,59.81
2023-11-15T11:33:28.793Z,60.25
2023-11-15T11:34:28.740Z,61.81
2023-11-15T11:35:28.730Z,59.65
2023-11-15T11:36:28.729Z,61.22
2023-11-15T11:37:28.723Z,61.00
2023-11-15T11:38:28.705Z,60.10
2023-11-15T11:39:28.693Z,61.13
2023-11-15T11:40:28.689Z,58.58
2023-11-15T11:41:28.681Z,61.65
2023-11-15T11:42:28.725Z,62.34
2023-11-15T11:43:28.696Z,61.21
2023-11-15T11:44:28.675Z,61.43
2023-11-15T11:45:28.654Z,59.67
2023-11-15T11:46:28.660Z,60.69
2023-11-15T11:47:28.658Z,57.79
2023-11-15T11:48:28.746Z,59.33
2023-11-15T11:49:28.687Z,61.97
2023-11-15T11:50:28.622Z,60.45
2023-11-15T11:51:28.615Z,62.19
2023-11-15T11:52:28.716Z,62.91
2023-11-15T11:53:28.612Z,61.52
2023-11-15T11:54:28.636Z,60.18
2023-11-15T11:55:28.591Z,60.02
2023-11-15T11:56:28.581Z,60.90
2023-11-15T11:57:28.560Z,61.22
2023-11-15T11:58:28.624Z,62.27
2023-11-15T11:59:28.601Z,60.25
2023-11-15T12:00:28.568Z,60.65
2023-11-15T12:01:28.549Z,61.70
2023-11-15T12:02:28.536Z,61.78
2023-11-15T12:03:28.713Z,59.47
2023-11-15T12:04:28.804Z,61.20
2023-11-15T12:05:28.529Z,61.45
2023-11-15T12:06:28.521Z,61.39
2023-11-15T12:07:28.493Z,60.90
2023-11-15T12:08:28.486Z,58.93
2023-11-15T12:09:28.489Z,61.65
2023-11-15T12:10:28.501Z,61.74
2023-11-15T12:11:28.478Z,60.37
2023-11-15T12:12:28.478Z,60.98
2023-11-15T12:13:28.457Z,61.58
2023-11-15T12:14:28.456Z,60.50
2023-11-15T12:15:28.719Z,62.12
2023-11-15T12:16:28.480Z,63.40
2023-11-15T12:17:28.441Z,61.79
2023-11-15T12:18:28.541Z,61.23
2023-11-15T12:19:28.414Z,61.73
2023-11-15T12:20:28.432Z,61.67
2023-11-15T12:21:28.401Z,60.65
2023-11-15T12:22:28.396Z,60.20
2023-11-15T12:23:28.384Z,61.90
2023-11-15T12:24:28.421Z,61.68
2023-11-15T12:25:28.393Z,61.83
2023-11-15T12:26:28.364Z,61.05
2023-11-15T12:27:28.362Z,61.99
2023-11-15T12:28:28.350Z,62.16
2023-11-15T12:29:28.375Z,61.56
2023-11-15T12:30:28.377Z,61.68
2023-11-15T12:31:28.334Z,63.22
2023-11-15T12:32:28.322Z,62.35
2023-11-15T12:33:28.410Z,62.60
2023-11-15T12:34:28.379Z,62.06
2023-11-15T12:35:28.306Z,62.03
2023-11-15T12:36:28.287Z,62.36
2023-11-15T12:37:28.299Z,62.26
2023-11-15T12:38:28.294Z,62.79
2023-11-15T12:39:28.269Z,62.30
2023-11-15T12:40:28.299Z,62.26
2023-11-15T12:41:28.256Z,63.15
2023-11-15T12:42:28.258Z,63.62
2023-11-15T12:43:28.271Z,62.43
2023-11-15T12:44:28.252Z,63.25
2023-11-15T12:45:28.305Z,61.16
2023-11-15T12:46:28.250Z,61.45
2023-11-15T12:47:28.282Z,62.80
2023-11-15T12:48:28.282Z,62.85
2023-11-15T12:49:28.402Z,61.37
2023-11-15T12:50:28.198Z,61.14
2023-11-15T12:51:28.183Z,64.20
2023-11-15T12:52:29.187Z,61.95
2023-11-15T12:53:28.202Z,62.27